NORTHEAST SUFFOLK  -  Rip Current Statement Rip Current Statement        NORTHERN NASSAU  -  Rip Current Statement Rip Current Statement        NORTHERN QUEENS  -  Rip Current Statement Rip Current Statement        NORTHWEST SUFFOLK  -  Rip Current Statement Rip Current Statement        SOUTHEAST SUFFOLK  -  Rip Current Statement Rip Current Statement        SOUTHERN NASSAU  -  Rip Current Statement Rip Current Statement        SOUTHERN QUEENS  -  Rip Current Statement Rip Current Statement        SOUTHWEST SUFFOLK  -  Rip Current Statement Rip Current Statement      

Active alerts

Northern Queens
  Details for Northern Queens Rip Current Statement
Southern Queens
  Details for Southern Queens Rip Current Statement
Northern Nassau
  Details for Northern Nassau Rip Current Statement
Southern Nassau
  Details for Southern Nassau Rip Current Statement
Northwest Suffolk
  Details for Northwest Suffolk Rip Current Statement
Southwest Suffolk
  Details for Southwest Suffolk Rip Current Statement
Northeast Suffolk
  Details for Northeast Suffolk Rip Current Statement
Southeast Suffolk
  Details for Southeast Suffolk Rip Current Statement


WXM80 ListenWXM80 Stop

You find our weather info also at:

UK Metoffice

WeatherCloud

Weather Underground

Northeastern Weather Network

AWEKAS

Citizen Weather Observer Program (CWOP)

HAMweather, WeatherForYou, PWS Weather


Nearby METAR Reports

   
KFRG - Farmingdale, New York, USA
Distance from station: SSW 14 mi
Updated: Jul 22 2018 11:53 pm
Overcast  
Overcast  
   Wind: SSE 16.1 mph<br />Gust to 16.1 mph
Wind: SSE 16.1 mph
Gust to 16.1 mph
Temperature: 75.2°F
Dew Point: 71.6°F
Humidity: 89%
Barometer: 30.05 inHg
Clouds: Overcast
Visibility: 10 mi
Cloud details: Few Clouds 1463 m,
Overcast 1829 m
KFRG 230353Z AUTO 15014G21KT 10SM FEW048 OVC060 24/22 A3005 RMK AO2 SLP176 T02390222
KISP - Islip, New York, USA
Distance from station: SE 15 mi
Updated: Jul 22 2018 11:56 pm
Overcast  
Overcast  
   Wind: SE 11.5 mph
Wind: SE 11.5 mph
Temperature: 75.2°F
Dew Point: 73.4°F
Humidity: 94%
Barometer: 30.06 inHg
Clouds: Overcast
Visibility: 10 mi
Cloud details: Few Clouds 274 m,
Partly Cloudy 975 m,
Overcast 1981 m
KISP 230356Z 13010KT 10SM FEW009 SCT032 OVC065 24/23 A3006 RMK AO2 SLP179 LAST T02390233
KBDR - Bridgeport, Connecticut, USA
Distance from station: NNE 20 mi
Updated: Jul 22 2018 11:52 pm
Overcast  
Overcast  
   Wind: SE 9.2 mph
Wind: SE 9.2 mph
Temperature: 75.2°F
Dew Point: 71.6°F
Humidity: 89%
Barometer: 30.07 inHg
Clouds: Overcast
Visibility: 10 mi
Cloud details: Partly Cloudy 457 m,
Mostly Cloudy 1036 m,
Overcast 1676 m
KBDR 230352Z AUTO 13008KT 10SM SCT015 BKN034 OVC055 24/22 A3007 RMK AO2 RAE17 SLP181 P0020 T02390222
KHPN - White Plains, New York, USA
Distance from station: WNW 22 mi
Updated: Jul 22 2018 11:56 pm
Light Rain, Mist, Overcast  
Light Rain, Mist, Overcast  
   Wind: SSE 13.8 mph
Wind: SSE 13.8 mph
Temperature: 73.4°F
Dew Point: 73.4°F
Humidity: 100%
Barometer: 30.05 inHg
Clouds: Overcast
Visibility: 3 mi
Cloud details: Overcast 122 m
KHPN 230356Z 15012KT 3SM -RA BR OVC004 23/23 A3005 RMK AO2 SLP169 P0000 T02330228
KHWV - Shirley, New York, USA
Distance from station: ESE 25 mi
Updated: Jul 23 2018 12:01 am
Overcast  
Overcast  
   Wind: SE 10.4 mph
Wind: SE 10.4 mph
Temperature: 73.4°F
Dew Point: 73.4°F
Humidity: 100%
Barometer: 30.08 inHg
Clouds: Overcast
Visibility: 9 mi
Cloud details: Few Clouds 244 m,
Mostly Cloudy 488 m,
Overcast 2286 m
KHWV 230401Z AUTO 14009KT 9SM FEW008 BKN016 OVC075 23/23 A3008 RMK AO2 T02330233
KJFK - NYC/JFK Arpt, New York, USA
Distance from station: SW 30 mi
Updated: Jul 22 2018 11:51 pm
Mostly Cloudy  
Mostly Cloudy  
   Wind: SE 15 mph
Wind: SE 15 mph
Temperature: 75.2°F
Dew Point: 75.2°F
Humidity: 100%
Barometer: 30.04 inHg
Clouds: Mostly Cloudy
Visibility: 9 mi
Cloud details: Few Clouds 274 m,
Few Clouds 671 m,
Mostly Cloudy 1829 m,
Mostly Cloudy 4572 m
KJFK 230351Z 14013KT 9SM FEW009 FEW022 BKN060 BKN150 24/24 A3004 RMK AO2 SLP172 T02390239 $
KLGA - NYC/La Guardia, New York, USA
Distance from station: WSW 30 mi
Updated: Jul 22 2018 11:51 pm
Overcast  
Overcast  
   Wind: SSE 17.3 mph<br />Gust to 17.3 mph
Wind: SSE 17.3 mph
Gust to 17.3 mph
Temperature: 78.8°F
Dew Point: 73.4°F
Humidity: 84%
Barometer: 30.02 inHg
Clouds: Overcast
Visibility: 10 mi
Cloud details: Mostly Cloudy 305 m,
Mostly Cloudy 671 m,
Overcast 1128 m
KLGA 230351Z 16015G20KT 10SM BKN010 BKN022 OVC037 26/23 A3002 RMK AO2 RAE0252 SLP166 P0000 T02560233 $
KDXR - Danbury, Connecticut, USA
Distance from station: NNW 32 mi
Updated: Jul 22 2018 11:53 pm
Light Rain, Mist, Overcast  
Light Rain, Mist, Overcast  
   Wind: SE 6.9 mph
Wind: SE 6.9 mph
Temperature: 73.4°F
Dew Point: 71.6°F
Humidity: 94%
Barometer: 30.08 inHg
Clouds: Overcast
Visibility: 5 mi
Cloud details: Overcast 244 m
KDXR 230353Z AUTO 13006KT 5SM -RA BR OVC008 23/22 A3008 RMK AO2 LTG DSNT NE CIG 005V012 SLP180 P0018 T02280222
KHVN - New Haven/Tweed, Connecticut, USA
Distance from station: NE 34 mi
Updated: Jul 22 2018 11:53 pm
Overcast  
Overcast  
   Wind: SE 9.2 mph
Wind: SE 9.2 mph
Temperature: 75.2°F
Dew Point: 73.4°F
Humidity: 94%
Barometer: 30.08 inHg
Clouds: Overcast
Visibility: 10 mi
Cloud details: Partly Cloudy 579 m,
Partly Cloudy 1250 m,
Overcast 1829 m
KHVN 230353Z AUTO 13008KT 10SM SCT019 SCT041 OVC060 24/23 A3008 RMK AO2 RAB0257E13 SLP186 P0030 T02390228
KNYC - NYC/Central Park, New York, USA
Distance from station: WSW 35 mi
Updated: Jul 22 2018 11:51 pm
Mist, Overcast  
Mist, Overcast  
   Wind: South 4.6 mph
Wind: South 4.6 mph
Temperature: 75.2°F
Dew Point: 73.4°F
Humidity: 94%
Barometer: 30.05 inHg
Clouds: Overcast
Visibility: 5 mi
Cloud details: Overcast 244 m
KNYC 230351Z AUTO 18004KT 5SM BR OVC008 24/23 A3005 RMK AO2 RAE44 SLP167 P0004 T02390233 $
KFOK - Westhampton Beach, New York, USA
Distance from station: E 38 mi
Updated: Jul 22 2018 11:53 pm
Mist, Overcast  
Mist, Overcast  
   Wind: SE 10.4 mph<br />Gust to 10.4 mph
Wind: SE 10.4 mph
Gust to 10.4 mph
Temperature: 73.4°F
Dew Point: 71.6°F
Humidity: 94%
Barometer: 30.1 inHg
Clouds: Overcast
Visibility: 6 mi
Cloud details: Mostly Cloudy 152 m,
Mostly Cloudy 457 m,
Overcast 3048 m
KFOK 230353Z AUTO 13009G15KT 6SM BR BKN005 BKN015 OVC100 23/22 A3010 RMK AO2 SLP193 T02330217 $
KTEB - Teterboro, New Jersey, USA
Distance from station: W 38 mi
Updated: Jul 22 2018 11:51 pm
Mist, Overcast  
Mist, Overcast  
   Wind: South 9.2 mph
Wind: South 9.2 mph
Temperature: 78.8°F
Dew Point: 75.2°F
Humidity: 89%
Barometer: 30.01 inHg
Clouds: Overcast
Visibility: 4 mi
Cloud details: Overcast 335 m
KTEB 230351Z 18008KT 4SM BR OVC011 26/24 A3001 RMK AO2 RAE38 SLP162 P0000 T02560239 $
KOXC - Oxford/Waterbury, Connecticut, USA
Distance from station: NNE 39 mi
Updated: Jul 23 2018 12:09 am
Light Rain, Overcast  
Light Rain, Overcast  
   Wind: SSE 17.3 mph<br />Gust to 17.3 mph
Wind: SSE 17.3 mph
Gust to 17.3 mph
Temperature: 71.6°F
Dew Point: 71.6°F
Humidity: 100%
Barometer: 30.1 inHg
Clouds: Overcast
Visibility: 8 mi
Cloud details: Overcast 91 m
KOXC 230409Z AUTO 15015G22KT 8SM -RA OVC003 22/22 A3010 RMK AO2 CIG 002V007 P0000
KEWR - Newark, New Jersey, USA
Distance from station: WSW 47 mi
Updated: Jul 22 2018 11:51 pm
Overcast  
Overcast  
   Wind: SE 9.2 mph
Wind: SE 9.2 mph
Temperature: 75.2°F
Dew Point: 73.4°F
Humidity: 94%
Barometer: 30.02 inHg
Clouds: Overcast
Visibility: 7 mi
Cloud details: Mostly Cloudy 213 m,
Overcast 335 m
KEWR 230351Z 14008KT 7SM BKN007 OVC011 24/23 A3002 RMK AO2 RAE23 SLP164 P0000 T02390233 $
KMMK - Meriden, Connecticut, USA
Distance from station: NNE 48 mi
Updated: Jul 22 2018 11:53 pm
Overcast  
Overcast  
   Wind: SSE 9.2 mph
Wind: SSE 9.2 mph
Temperature: 73.4°F
Dew Point: 71.6°F
Humidity: 94%
Barometer: 30.08 inHg
Clouds: Overcast
Visibility: 10 mi
Cloud details: Overcast 366 m
KMMK 230353Z AUTO 15008KT 10SM OVC012 23/22 A3008 RMK AO2 LTG DSNT NW RAE42 SLP186 P0017 T02280217 $

Script developed by  Saratoga-weather.org Adapted for the template by  Weerstation Leuven

Weather Terms: Wind Chill - An apparent temperature that describes the combined effect of wind and low temperature on exposed skin.